Time;durP1;ratioP1;P1;durP2;ratioP2;P2;SDS_P1;SDS_P2;PMS_P1;PMS_P2;Temp;Humidity;BMP_temperature;BMP_pressure;BME280_temperature;BME280_humidity;BME280_pressure;Samples;Min_cycle;Max_cycle;Signal;HPM_P1;HPM_P2
2022/10/29 00:00:39;;;;;;;12.82;6.85;;;16.00;99.90;;;;;;5097531;28;20123;-69
2022/10/29 00:03:06;;;;;;;17.83;7.47;;;16.00;99.90;;;;;;5079814;28;20387;-68
2022/10/29 00:05:32;;;;;;;13.85;6.63;;;16.00;99.90;;;;;;5097928;28;20338;-68
2022/10/29 00:07:57;;;;;;;16.75;7.00;;;15.90;99.90;;;;;;5079864;28;20055;-70
2022/10/29 00:10:23;;;;;;;12.65;7.63;;;15.90;99.90;;;;;;5097555;28;20028;-69
2022/10/29 00:12:49;;;;;;;14.35;7.22;;;15.90;99.90;;;;;;5096612;28;20152;-69
2022/10/29 00:15:15;;;;;;;19.27;8.32;;;16.00;99.90;;;;;;5097256;28;20032;-70
2022/10/29 00:17:41;;;;;;;15.20;7.80;;;16.10;99.90;;;;;;5079659;28;20028;-69
2022/10/29 00:20:07;;;;;;;12.98;7.50;;;16.00;99.90;;;;;;5097615;28;20093;-69
2022/10/29 00:22:33;;;;;;;16.63;8.48;;;15.90;99.90;;;;;;5097324;28;20032;-70
2022/10/29 00:24:59;;;;;;;17.23;7.55;;;16.00;99.90;;;;;;5096665;28;20047;-70
2022/10/29 00:27:25;;;;;;;20.02;8.32;;;15.90;99.90;;;;;;5097167;28;20398;-71
2022/10/29 00:29:51;;;;;;;14.57;8.07;;;15.90;99.90;;;;;;5097292;28;20035;-70
2022/10/29 00:32:17;;;;;;;18.77;8.40;;;15.90;99.90;;;;;;5096321;28;20460;-69
2022/10/29 00:34:42;;;;;;;14.57;7.40;;;15.90;99.90;;;;;;5096396;28;20097;-68
2022/10/29 00:37:08;;;;;;;16.40;7.13;;;15.80;99.90;;;;;;5097151;28;20032;-68
2022/10/29 00:39:34;;;;;;;18.13;7.60;;;15.70;99.90;;;;;;5097076;28;20160;-70
2022/10/29 00:42:00;;;;;;;13.88;7.43;;;15.60;99.90;;;;;;5097002;28;20307;-69
2022/10/29 00:44:34;;;;;;;10.35;7.03;;;15.50;99.90;;;;;;5096809;28;20032;-69
2022/10/29 00:47:18;;;;;;;17.55;8.43;;;15.50;99.90;;;;;;5097252;28;20024;-69
2022/10/29 00:49:47;;;;;;;16.95;8.50;;;15.60;99.90;;;;;;5095955;28;20126;-69
2022/10/29 00:52:15;;;;;;;19.35;7.75;;;15.50;99.90;;;;;;5096230;28;20024;-68
2022/10/29 00:54:44;;;;;;;12.68;8.18;;;15.40;99.90;;;;;;5097293;28;20068;-69
2022/10/29 00:57:14;;;;;;;15.15;8.15;;;15.40;99.90;;;;;;5097250;28;20043;-69
2022/10/29 00:59:42;;;;;;;17.95;8.65;;;15.40;99.90;;;;;;5095900;28;20085;-69
2022/10/29 01:02:08;;;;;;;16.58;7.72;;;15.50;99.90;;;;;;5079053;28;20307;-69
2022/10/29 01:04:35;;;;;;;14.85;8.60;;;15.60;99.90;;;;;;5097345;28;20040;-69
2022/10/29 01:07:01;;;;;;;16.42;8.20;;;15.50;99.90;;;;;;5097078;28;20024;-68
2022/10/29 01:09:26;;;;;;;16.98;8.10;;;15.40;99.90;;;;;;5096033;28;20025;-69
2022/10/29 01:12:08;;;;;;;13.57;8.18;;;15.30;99.90;;;;;;5097679;28;20486;-68
2022/10/29 01:14:51;;;;;;;17.52;8.02;;;15.30;99.90;;;;;;5096097;28;20095;-68
2022/10/29 01:17:29;;;;;;;17.77;8.27;;;15.30;99.90;;;;;;5097230;28;20031;-68
2022/10/29 01:20:28;;;;;;;16.98;7.80;;;15.30;99.90;;;;;;5096735;28;20047;-68
2022/10/29 01:23:05;;;;;;;14.73;7.70;;;15.20;99.90;;;;;;5097147;28;20035;-68
2022/10/29 01:26:21;;;;;;;16.60;8.70;;;15.20;99.90;;;;;;5096050;28;20111;-68
2022/10/29 01:29:07;;;;;;;13.48;7.47;;;15.30;99.90;;;;;;5084842;28;20407;-67
2022/10/29 01:31:35;;;;;;;23.92;8.50;;;15.30;99.90;;;;;;5095962;28;20028;-67
2022/10/29 01:34:19;;;;;;;20.10;7.78;;;15.40;99.90;;;;;;5096562;28;20303;-66
2022/10/29 01:36:52;;;;;;;20.73;8.65;;;15.40;99.90;;;;;;5096771;28;20103;-68
2022/10/29 01:39:51;;;;;;;18.15;8.38;;;15.50;99.90;;;;;;5095878;28;20346;-67
2022/10/29 01:42:40;;;;;;;16.30;7.60;;;15.40;99.90;;;;;;5095975;28;20055;-67
2022/10/29 01:45:18;;;;;;;15.45;8.15;;;15.30;99.90;;;;;;5096701;28;20078;-67
2022/10/29 01:47:50;;;;;;;15.77;8.38;;;15.20;99.90;;;;;;5095907;28;20202;-68
2022/10/29 01:50:19;;;;;;;14.68;8.13;;;15.20;99.90;;;;;;5096249;28;20028;-68
2022/10/29 01:52:46;;;;;;;15.77;7.85;;;15.10;99.90;;;;;;5095403;28;20401;-68
2022/10/29 01:55:17;;;;;;;15.52;7.82;;;15.10;99.90;;;;;;5078419;28;20032;-67
2022/10/29 01:57:43;;;;;;;15.27;7.93;;;15.10;99.90;;;;;;5095093;28;20056;-67
2022/10/29 02:00:10;;;;;;;13.32;8.00;;;15.10;99.90;;;;;;5095571;28;20046;-67
2022/10/29 02:03:00;;;;;;;14.52;6.80;;;15.10;99.90;;;;;;5096336;28;20028;-67
2022/10/29 02:06:05;;;;;;;14.50;8.05;;;15.10;99.90;;;;;;5100442;28;20165;-67
2022/10/29 02:08:46;;;;;;;12.10;7.28;;;15.00;99.90;;;;;;5099708;28;20284;-67
2022/10/29 02:11:25;;;;;;;14.05;7.90;;;14.90;99.90;;;;;;5100410;28;20291;-67
2022/10/29 02:14:04;;;;;;;12.60;7.07;;;14.90;99.90;;;;;;5100171;28;20379;-67
2022/10/29 02:16:31;;;;;;;13.43;7.30;;;14.90;99.90;;;;;;5100067;28;20092;-67
2022/10/29 02:18:58;;;;;;;13.10;7.93;;;14.90;99.90;;;;;;5100079;28;20272;-68
2022/10/29 02:21:24;;;;;;;17.52;8.32;;;14.80;99.90;;;;;;5099294;28;20043;-68
2022/10/29 02:23:50;;;;;;;17.75;7.75;;;14.80;99.90;;;;;;5099062;28;20399;-69
2022/10/29 02:26:16;;;;;;;14.38;7.95;;;14.90;99.90;;;;;;5099844;28;20047;-68
2022/10/29 02:28:42;;;;;;;18.55;9.30;;;14.80;99.90;;;;;;5099974;28;20058;-68
2022/10/29 02:31:08;;;;;;;15.45;8.60;;;14.80;99.90;;;;;;5099728;28;20020;-68
2022/10/29 02:33:34;;;;;;;23.52;9.07;;;14.80;99.90;;;;;;5098920;28;20036;-68
2022/10/29 02:36:00;;;;;;;20.65;8.10;;;14.80;99.90;;;;;;5098917;28;20036;-67
2022/10/29 02:38:26;;;;;;;17.17;9.43;;;14.80;99.90;;;;;;5098831;28;20039;-69
2022/10/29 02:40:52;;;;;;;13.40;8.15;;;14.90;99.90;;;;;;5081882;28;20040;-67
2022/10/29 02:43:17;;;;;;;21.58;9.52;;;15.00;99.90;;;;;;5099265;28;20299;-67
2022/10/29 02:45:43;;;;;;;14.65;8.27;;;15.10;99.90;;;;;;5099647;28;20268;-67
2022/10/29 02:48:09;;;;;;;18.30;8.63;;;15.20;99.90;;;;;;5099470;28;20043;-67
2022/10/29 02:50:35;;;;;;;13.98;8.65;;;15.30;99.90;;;;;;5098786;28;20357;-67
2022/10/29 02:53:00;;;;;;;20.23;8.90;;;15.40;99.90;;;;;;5081854;28;20084;-67
2022/10/29 02:55:26;;;;;;;20.77;9.02;;;15.30;99.90;;;;;;5098484;28;20403;-67
2022/10/29 02:57:52;;;;;;;19.02;8.60;;;15.30;99.90;;;;;;5099153;28;20101;-67
2022/10/29 03:00:18;;;;;;;14.40;9.00;;;15.40;99.90;;;;;;5098528;28;20117;-67
2022/10/29 03:02:44;;;;;;;15.88;9.00;;;15.40;99.90;;;;;;5099157;28;20174;-68
2022/10/29 03:05:10;;;;;;;18.70;9.80;;;15.40;99.90;;;;;;5098622;28;20040;-68
2022/10/29 03:07:37;;;;;;;18.35;9.95;;;15.40;99.90;;;;;;5099198;28;20298;-68
2022/10/29 03:10:06;;;;;;;23.42;9.15;;;15.40;99.90;;;;;;5099093;28;20024;-68
2022/10/29 03:12:33;;;;;;;18.23;9.07;;;15.40;99.90;;;;;;5099296;28;20058;-68
2022/10/29 03:14:59;;;;;;;16.35;9.23;;;15.40;99.90;;;;;;5080715;28;20024;-68
2022/10/29 03:17:24;;;;;;;19.38;9.10;;;15.50;99.90;;;;;;5081327;28;20046;-68
2022/10/29 03:19:50;;;;;;;17.33;8.93;;;15.60;99.90;;;;;;5098769;28;20387;-68
2022/10/29 03:22:16;;;;;;;16.52;8.60;;;15.60;99.90;;;;;;5081271;28;20311;-67
2022/10/29 03:24:42;;;;;;;17.52;8.25;;;15.70;99.90;;;;;;5097902;28;20047;-67
2022/10/29 03:27:08;;;;;;;23.13;9.05;;;15.70;99.90;;;;;;5098573;28;20354;-67
2022/10/29 03:29:34;;;;;;;14.27;8.50;;;15.80;99.90;;;;;;5098642;28;20097;-68
2022/10/29 03:31:59;;;;;;;14.55;7.88;;;15.80;99.90;;;;;;5097750;28;20028;-67
2022/10/29 03:34:25;;;;;;;18.90;8.18;;;15.80;99.90;;;;;;5097927;28;20032;-67
2022/10/29 03:36:51;;;;;;;14.52;7.70;;;15.80;99.90;;;;;;5097791;28;20100;-68
2022/10/29 03:39:17;;;;;;;16.58;8.55;;;15.70;99.90;;;;;;5097566;28;20032;-68
2022/10/29 03:41:42;;;;;;;18.80;7.55;;;15.70;99.90;;;;;;5098289;28;20047;-67
2022/10/29 03:44:08;;;;;;;16.17;7.43;;;15.70;99.90;;;;;;5097430;28;20137;-67
2022/10/29 03:46:34;;;;;;;11.52;6.75;;;15.70;99.90;;;;;;5098873;28;20044;-67
2022/10/29 03:48:59;;;;;;;14.80;7.88;;;15.80;99.90;;;;;;5097767;28;20268;-67
2022/10/29 03:51:25;;;;;;;13.60;7.85;;;15.80;99.90;;;;;;5080623;28;20039;-67
2022/10/29 03:53:51;;;;;;;17.33;7.18;;;15.80;99.90;;;;;;5097436;28;20153;-67
2022/10/29 03:56:17;;;;;;;15.32;7.38;;;15.80;99.90;;;;;;5080554;28;20039;-68
2022/10/29 03:58:43;;;;;;;14.30;6.93;;;15.80;99.90;;;;;;5080230;28;20109;-69
2022/10/29 04:01:09;;;;;;;14.13;7.15;;;15.80;99.90;;;;;;5098252;28;20063;-68
2022/10/29 04:03:37;;;;;;;15.35;7.07;;;15.80;99.90;;;;;;5097209;28;20079;-66
2022/10/29 04:06:09;;;;;;;12.02;7.03;;;15.90;99.90;;;;;;5097179;28;20355;-66
2022/10/29 04:08:35;;;;;;;;;;;15.90;99.90;;;;;;5080564;28;20058;-66
2022/10/29 04:11:01;;;;;;;16.30;6.25;;;15.90;99.90;;;;;;5096998;28;19908;-66
2022/10/29 04:13:27;;;;;;;16.25;6.68;;;15.90;99.90;;;;;;5097742;28;20113;-66
2022/10/29 04:15:54;;;;;;;14.75;7.03;;;15.90;99.90;;;;;;5080023;28;20036;-66
2022/10/29 04:18:20;;;;;;;16.35;6.15;;;15.90;99.90;;;;;;5097081;28;20036;-66
2022/10/29 04:20:45;;;;;;;12.38;5.75;;;15.90;99.90;;;;;;5096846;28;20113;-66
2022/10/29 04:23:11;;;;;;;14.38;5.82;;;15.80;99.90;;;;;;5096888;28;20051;-66
2022/10/29 04:25:37;;;;;;;14.15;6.40;;;15.70;99.90;;;;;;5097676;28;20403;-66
2022/10/29 04:28:03;;;;;;;16.08;6.53;;;15.70;99.90;;;;;;5095965;28;20051;-66
2022/10/29 04:30:29;;;;;;;16.67;6.43;;;15.60;99.90;;;;;;5096845;28;20035;-66
2022/10/29 04:32:57;;;;;;;15.23;6.50;;;15.70;99.90;;;;;;5097446;28;20115;-66
2022/10/29 04:35:23;;;;;;;13.63;6.20;;;15.60;99.90;;;;;;5097517;28;20031;-66
2022/10/29 04:37:49;;;;;;;11.95;6.38;;;15.50;99.90;;;;;;5097576;28;20036;-66
2022/10/29 04:40:15;;;;;;;14.27;6.85;;;15.50;99.90;;;;;;5096871;28;20043;-66
2022/10/29 04:42:40;;;;;;;19.10;7.03;;;15.40;99.90;;;;;;5096990;28;20051;-66
2022/10/29 04:45:07;;;;;;;14.88;6.90;;;15.40;99.90;;;;;;5097524;28;20134;-67
2022/10/29 04:47:33;;;;;;;13.25;6.85;;;15.40;99.90;;;;;;5096909;28;20119;-67
2022/10/29 04:49:58;;;;;;;14.98;8.23;;;15.40;99.90;;;;;;5079899;28;20103;-66
2022/10/29 04:52:25;;;;;;;14.25;7.68;;;15.30;99.90;;;;;;5097476;28;20032;-66
2022/10/29 04:54:50;;;;;;;16.90;7.88;;;15.30;99.90;;;;;;5079722;28;20056;-66
2022/10/29 04:57:16;;;;;;;16.75;8.25;;;15.40;99.90;;;;;;5096588;28;20091;-66
2022/10/29 04:59:42;;;;;;;15.80;7.97;;;15.40;99.90;;;;;;5097319;28;20046;-66
2022/10/29 05:02:09;;;;;;;20.52;8.65;;;15.50;99.90;;;;;;5097218;28;20043;-67
2022/10/29 05:04:35;;;;;;;18.70;8.20;;;15.50;99.90;;;;;;5097132;28;20395;-67
2022/10/29 05:07:01;;;;;;;20.05;8.60;;;15.60;99.90;;;;;;5097273;28;20047;-66
2022/10/29 05:09:26;;;;;;;14.50;8.18;;;15.60;99.90;;;;;;5096380;28;20032;-67
2022/10/29 05:11:52;;;;;;;17.73;8.98;;;15.70;99.90;;;;;;5097212;28;20147;-65
2022/10/29 05:14:18;;;;;;;16.13;8.85;;;15.60;99.90;;;;;;5097030;28;20028;-65
2022/10/29 05:16:44;;;;;;;18.33;9.00;;;15.70;99.90;;;;;;5096548;28;20034;-67
2022/10/29 05:19:09;;;;;;;18.15;9.45;;;15.60;99.90;;;;;;5097033;28;20107;-65
2022/10/29 05:21:35;;;;;;;24.60;9.98;;;15.60;99.90;;;;;;5096266;28;20256;-66
2022/10/29 05:24:01;;;;;;;19.23;9.82;;;15.60;99.90;;;;;;5096206;28;20089;-68
2022/10/29 05:26:30;;;;;;;23.92;10.20;;;15.60;99.90;;;;;;5097599;28;20033;-67
2022/10/29 05:28:55;;;;;;;22.00;10.23;;;15.70;99.90;;;;;;5097205;28;20020;-68
2022/10/29 05:31:21;;;;;;;18.83;10.27;;;15.70;99.90;;;;;;5097123;28;20032;-66
2022/10/29 05:33:47;;;;;;;18.77;9.60;;;15.80;99.90;;;;;;5096099;28;20036;-67
2022/10/29 05:36:13;;;;;;;15.65;9.77;;;15.80;99.90;;;;;;5097515;28;20046;-69
2022/10/29 05:38:38;;;;;;;15.55;9.57;;;15.90;99.90;;;;;;5098756;28;20119;-68
2022/10/29 05:41:04;;;;;;;15.85;9.52;;;15.80;99.90;;;;;;5100447;28;20037;-68
2022/10/29 05:43:30;;;;;;;20.48;9.90;;;15.80;99.90;;;;;;5100178;28;20036;-67
2022/10/29 05:45:56;;;;;;;21.85;10.27;;;15.90;99.90;;;;;;5100866;28;20314;-68
2022/10/29 05:48:21;;;;;;;17.88;9.93;;;15.80;99.90;;;;;;5083257;28;20024;-66
2022/10/29 05:50:47;;;;;;;20.10;10.30;;;15.80;99.90;;;;;;5100051;28;20362;-67
2022/10/29 05:53:14;;;;;;;22.98;10.65;;;15.70;99.90;;;;;;5101311;28;20295;-67
2022/10/29 05:55:40;;;;;;;22.98;10.60;;;15.70;99.90;;;;;;5099918;28;20032;-66
2022/10/29 05:58:09;;;;;;;19.77;9.50;;;15.60;99.90;;;;;;5099760;28;20055;-65
2022/10/29 06:00:37;;;;;;;18.20;10.25;;;15.60;99.90;;;;;;5100525;28;20273;-65
2022/10/29 06:03:11;;;;;;;19.92;10.00;;;15.50;99.90;;;;;;5100398;28;20038;-66
2022/10/29 06:05:37;;;;;;;20.50;10.00;;;15.40;99.90;;;;;;5099858;28;20296;-66
2022/10/29 06:08:03;;;;;;;15.77;9.82;;;15.40;99.90;;;;;;5099830;28;20024;-65
2022/10/29 06:10:29;;;;;;;17.42;9.85;;;15.30;99.90;;;;;;5100411;28;20097;-66
2022/10/29 06:12:54;;;;;;;17.23;9.75;;;15.30;99.90;;;;;;5099715;28;20375;-67
2022/10/29 06:15:21;;;;;;;17.55;10.10;;;15.30;99.90;;;;;;5099703;28;20161;-66
2022/10/29 06:17:47;;;;;;;19.92;10.75;;;15.20;99.90;;;;;;5099633;28;20127;-66
2022/10/29 06:20:16;;;;;;;20.10;9.93;;;15.30;99.90;;;;;;5099546;28;20066;-66
2022/10/29 06:22:41;;;;;;;22.05;9.98;;;15.30;99.90;;;;;;5099735;28;20028;-67
2022/10/29 06:25:08;;;;;;;19.48;10.30;;;15.20;99.90;;;;;;5100209;28;20135;-66
2022/10/29 06:27:34;;;;;;;14.60;9.07;;;15.10;99.90;;;;;;5099583;28;20373;-67
2022/10/29 06:30:00;;;;;;;19.02;9.88;;;15.10;99.90;;;;;;5100436;28;20028;-66
2022/10/29 06:32:26;;;;;;;18.98;10.30;;;15.10;99.90;;;;;;5100210;28;20032;-66
2022/10/29 06:34:52;;;;;;;17.45;9.77;;;15.10;99.90;;;;;;5099196;28;20035;-66
2022/10/29 06:37:18;;;;;;;24.77;11.70;;;15.10;99.90;;;;;;5099767;28;20394;-66
2022/10/29 06:39:43;;;;;;;22.70;10.38;;;15.10;99.90;;;;;;5100222;28;20334;-67
2022/10/29 06:42:09;;;;;;;18.70;10.93;;;15.10;99.90;;;;;;5100435;28;20043;-66
2022/10/29 06:44:35;;;;;;;14.32;10.05;;;15.10;99.90;;;;;;5099754;28;20395;-67
2022/10/29 06:47:00;;;;;;;17.20;11.13;;;15.10;99.90;;;;;;5099670;28;20349;-67
2022/10/29 06:49:26;;;;;;;23.05;11.35;;;15.20;99.90;;;;;;5098904;28;20320;-66
2022/10/29 06:51:52;;;;;;;19.60;10.75;;;15.30;99.90;;;;;;5099583;28;20064;-66
2022/10/29 06:54:18;;;;;;;20.75;11.45;;;15.30;99.90;;;;;;5099577;28;20032;-65
2022/10/29 06:56:43;;;;;;;21.40;11.63;;;15.30;99.90;;;;;;5099147;28;20040;-66
2022/10/29 06:59:09;;;;;;;19.00;11.45;;;15.30;99.90;;;;;;5099230;28;20036;-67
2022/10/29 07:01:35;;;;;;;16.08;10.82;;;15.30;99.90;;;;;;5081923;28;20078;-66
2022/10/29 07:04:01;;;;;;;19.80;11.00;;;15.30;99.90;;;;;;5098348;28;20143;-66
2022/10/29 07:06:30;;;;;;;30.70;13.27;;;15.40;99.90;;;;;;5098663;28;20380;-66
2022/10/29 07:08:56;;;;;;;23.23;12.40;;;15.50;99.90;;;;;;5081589;28;20028;-67
2022/10/29 07:11:21;;;;;;;22.92;12.77;;;15.60;99.90;;;;;;5099914;28;20376;-67
2022/10/29 07:13:47;;;;;;;21.92;12.43;;;15.60;99.90;;;;;;5098475;28;20043;-67
2022/10/29 07:16:13;;;;;;;22.15;12.40;;;15.70;99.90;;;;;;5098485;28;20047;-67
2022/10/29 07:18:39;;;;;;;19.05;11.38;;;15.80;99.90;;;;;;5082239;28;20060;-67
2022/10/29 07:21:05;;;;;;;20.33;13.05;;;15.90;99.90;;;;;;5098433;28;20032;-68
2022/10/29 07:23:30;;;;;;;20.05;11.88;;;15.90;99.90;;;;;;5081286;28;20036;-68
2022/10/29 07:25:56;;;;;;;20.75;11.65;;;16.00;99.90;;;;;;5098089;28;20047;-67
2022/10/29 07:28:24;;;;;;;17.15;11.40;;;15.90;99.90;;;;;;5098383;28;20291;-67
2022/10/29 07:30:51;;;;;;;22.77;12.35;;;15.90;99.90;;;;;;5081175;28;20042;-67
2022/10/29 07:33:17;;;;;;;18.27;12.23;;;16.00;99.90;;;;;;5098890;28;20032;-66
2022/10/29 07:35:44;;;;;;;19.83;10.80;;;16.10;99.90;;;;;;5098019;28;20024;-67
2022/10/29 07:38:11;;;;;;;22.30;12.60;;;16.20;99.90;;;;;;5098688;28;20028;-67
2022/10/29 07:40:38;;;;;;;21.38;11.40;;;16.30;99.90;;;;;;5097819;28;20264;-66
2022/10/29 07:43:04;;;;;;;21.13;11.30;;;16.30;99.90;;;;;;5081065;28;20028;-65
2022/10/29 07:45:31;;;;;;;17.92;10.27;;;16.30;99.90;;;;;;5097685;28;20032;-67
2022/10/29 07:48:03;;;;;;;21.02;11.27;;;16.40;99.90;;;;;;5097754;28;20068;-66
2022/10/29 07:50:30;;;;;;;20.70;10.45;;;16.50;99.90;;;;;;5097602;28;20142;-66
2022/10/29 07:52:59;;;;;;;15.43;9.73;;;16.60;99.90;;;;;;5098268;28;20265;-66
2022/10/29 07:55:25;;;;;;;17.25;9.93;;;16.70;99.90;;;;;;5097595;28;20407;-65
2022/10/29 07:58:00;;;;;;;16.02;10.30;;;16.80;99.90;;;;;;5080734;28;20327;-67
2022/10/29 08:00:33;;;;;;;16.77;9.77;;;16.90;99.90;;;;;;5098131;28;20039;-65
2022/10/29 08:02:59;;;;;;;16.15;9.45;;;17.00;99.90;;;;;;5097568;28;20261;-66
2022/10/29 08:05:26;;;;;;;21.00;10.23;;;17.00;99.90;;;;;;5097340;28;20109;-66
2022/10/29 08:07:53;;;;;;;18.23;9.40;;;17.00;99.90;;;;;;5097316;28;20352;-65
2022/10/29 08:10:21;;;;;;;16.65;9.52;;;17.10;99.90;;;;;;5097882;28;20521;-66
2022/10/29 08:12:49;;;;;;;16.23;8.98;;;17.20;99.90;;;;;;5097927;28;20097;-66
2022/10/29 08:15:15;;;;;;;16.50;8.63;;;17.30;99.90;;;;;;5097242;28;20341;-66
2022/10/29 08:17:41;;;;;;;16.88;9.27;;;17.40;99.90;;;;;;5097186;28;20032;-66
2022/10/29 08:20:07;;;;;;;18.95;9.90;;;17.40;99.90;;;;;;5080295;28;20130;-67
2022/10/29 08:22:33;;;;;;;17.23;9.43;;;17.60;99.90;;;;;;5097769;28;20104;-66
2022/10/29 08:24:59;;;;;;;14.13;8.88;;;17.70;99.90;;;;;;5080129;28;20048;-65
2022/10/29 08:27:24;;;;;;;16.75;8.40;;;17.70;99.90;;;;;;5097009;28;20035;-66
2022/10/29 08:29:50;;;;;;;19.13;9.30;;;17.80;99.90;;;;;;5080289;28;20036;-65
2022/10/29 08:32:16;;;;;;;16.38;9.15;;;17.80;99.90;;;;;;5096814;28;20344;-66
2022/10/29 08:34:41;;;;;;;17.92;8.88;;;17.90;99.90;;;;;;5097183;28;20071;-66
2022/10/29 08:37:07;;;;;;;16.83;8.25;;;17.80;99.90;;;;;;5096819;28;20434;-66
2022/10/29 08:39:33;;;;;;;12.30;7.68;;;18.00;99.90;;;;;;5097486;28;20036;-66
2022/10/29 08:42:30;;;;;;;13.70;8.02;;;18.10;99.90;;;;;;5096658;28;20331;-66
2022/10/29 08:45:04;;;;;;;12.95;7.30;;;18.10;99.90;;;;;;5091283;28;20047;-65
2022/10/29 08:47:50;;;;;;;14.88;7.68;;;18.40;99.90;;;;;;5097491;28;20020;-65
2022/10/29 08:50:28;;;;;;;15.20;7.30;;;18.40;99.90;;;;;;5096570;28;20104;-65
2022/10/29 08:52:55;;;;;;;16.00;7.40;;;18.30;99.90;;;;;;5096577;28;20341;-65
2022/10/29 08:55:32;;;;;;;16.65;7.45;;;18.20;99.90;;;;;;5096413;28;20024;-65
2022/10/29 08:58:09;;;;;;;15.15;7.82;;;18.20;99.90;;;;;;5096936;28;20101;-65
2022/10/29 09:00:40;;;;;;;13.52;6.72;;;18.30;99.90;;;;;;5096909;28;20056;-66
2022/10/29 09:03:11;;;;;;;14.02;6.95;;;18.40;99.90;;;;;;5097193;28;20429;-66
2022/10/29 09:06:06;;;;;;;15.05;6.93;;;18.50;99.90;;;;;;5096512;28;20031;-67
2022/10/29 09:09:14;;;;;;;12.98;6.63;;;18.70;99.90;;;;;;5097524;28;20103;-66
2022/10/29 09:12:14;;;;;;;16.63;6.78;;;18.80;99.90;;;;;;5097743;28;20058;-66
2022/10/29 09:14:48;;;;;;;12.15;6.68;;;18.60;99.90;;;;;;5096948;28;20028;-65
2022/10/29 09:17:44;;;;;;;15.18;7.32;;;18.60;99.90;;;;;;5096354;28;20066;-65
2022/10/29 09:20:31;;;;;;;13.75;7.05;;;18.40;99.90;;;;;;5097016;28;20273;-66
2022/10/29 09:23:10;;;;;;;15.07;6.50;;;18.40;99.90;;;;;;5097031;28;20038;-66
2022/10/29 09:25:44;;;;;;;12.48;6.55;;;18.50;99.90;;;;;;5096194;28;20046;-66
2022/10/29 09:28:28;;;;;;;14.88;6.65;;;18.70;99.90;;;;;;5096937;28;20085;-67
2022/10/29 09:31:20;;;;;;;14.40;6.07;;;18.80;99.90;;;;;;5097000;28;20468;-67
2022/10/29 09:33:48;;;;;;;12.45;6.18;;;19.10;99.90;;;;;;5086304;28;20044;-66
2022/10/29 09:36:18;;;;;;;16.33;6.25;;;19.20;99.90;;;;;;5079233;28;20081;-66
2022/10/29 09:39:17;;;;;;;11.50;6.10;;;19.30;99.90;;;;;;5096826;28;20024;-66
2022/10/29 09:41:43;;;;;;;13.07;5.90;;;19.40;99.90;;;;;;5089954;28;20044;-66
2022/10/29 09:44:22;;;;;;;17.00;6.03;;;19.40;99.90;;;;;;5095952;28;20031;-66
2022/10/29 09:47:13;;;;;;;11.80;5.88;;;19.30;99.90;;;;;;5095964;28;20032;-64
2022/10/29 09:49:56;;;;;;;13.63;5.05;;;19.30;99.90;;;;;;5096682;28;20317;-66
2022/10/29 09:52:34;;;;;;;11.23;5.47;;;19.40;99.90;;;;;;5097296;28;20028;-66
2022/10/29 09:55:04;;;;;;;10.05;4.70;;;19.70;99.90;;;;;;5096674;28;20032;-66
2022/10/29 09:57:33;;;;;;;12.50;4.70;;;19.70;99.90;;;;;;5095847;28;20063;-67
2022/10/29 10:00:03;;;;;;;12.63;4.10;;;20.10;99.90;;;;;;5096623;28;20032;-65
2022/10/29 10:03:03;;;;;;;12.45;4.20;;;20.50;99.90;;;;;;5096686;28;20404;-65
2022/10/29 10:05:34;;;;;;;9.25;3.92;;;20.70;99.90;;;;;;5095814;28;20028;-66
2022/10/29 10:08:13;;;;;;;9.32;3.83;;;21.30;99.90;;;;;;5096658;28;20089;-65
2022/10/29 10:10:50;;;;;;;14.20;4.55;;;21.60;99.90;;;;;;5096439;28;20040;-65
2022/10/29 10:13:17;;;;;;;12.57;4.32;;;22.00;99.90;;;;;;5096581;28;20102;-65
2022/10/29 10:15:51;;;;;;;10.70;4.10;;;21.90;99.90;;;;;;5096424;28;20337;-66
2022/10/29 10:18:25;;;;;;;12.30;4.35;;;21.60;99.90;;;;;;5096523;28;20024;-67
2022/10/29 10:21:07;;;;;;;12.30;3.63;;;21.90;99.90;;;;;;5096440;28;20038;-67
2022/10/29 10:23:46;;;;;;;11.40;3.50;;;23.20;99.90;;;;;;5096706;28;20061;-66
2022/10/29 10:26:30;;;;;;;9.90;3.53;;;24.00;99.90;;;;;;5100153;28;20046;-65
2022/10/29 10:29:16;;;;;;;12.88;3.97;;;23.30;99.90;;;;;;5100296;28;20031;-64
2022/10/29 10:32:05;;;;;;;11.88;3.92;;;23.60;99.90;;;;;;5100562;28;20290;-66
2022/10/29 10:34:33;;;;;;;13.20;3.72;;;23.80;99.90;;;;;;5089490;28;20040;-66
2022/10/29 10:37:18;;;;;;;9.20;3.88;;;24.20;99.90;;;;;;5099983;28;20036;-66
2022/10/29 10:40:05;;;;;;;8.23;3.38;;;24.50;99.90;;;;;;5098981;28;20051;-65
2022/10/29 10:42:38;;;;;;;11.82;3.97;;;25.10;99.90;;;;;;5099769;28;20081;-66
2022/10/29 10:45:14;;;;;;;13.63;3.80;;;25.00;99.90;;;;;;5099245;28;20032;-61
2022/10/29 10:47:46;;;;;;;10.25;3.85;;;24.30;99.90;;;;;;5100196;28;20364;-66
2022/10/29 10:50:19;;;;;;;9.82;3.10;;;23.70;99.90;;;;;;5099506;28;20032;-66
2022/10/29 10:52:45;;;;;;;11.77;3.50;;;24.50;99.90;;;;;;5099731;28;20085;-66
2022/10/29 10:55:29;;;;;;;14.27;4.10;;;24.10;99.90;;;;;;5081947;28;20380;-65
2022/10/29 10:58:12;;;;;;;12.82;3.92;;;24.30;99.90;;;;;;5099309;28;20395;-68
2022/10/29 11:01:01;;;;;;;11.80;3.60;;;25.00;99.90;;;;;;5099305;28;20165;-70
2022/10/29 11:03:40;;;;;;;13.65;3.50;;;24.60;99.90;;;;;;5098497;28;20122;-67
2022/10/29 11:06:13;;;;;;;11.55;3.38;;;25.20;99.90;;;;;;5098667;28;20027;-65
2022/10/29 11:08:54;;;;;;;11.10;3.78;;;25.20;99.90;;;;;;5098964;28;20039;-66
2022/10/29 11:11:30;;;;;;;9.00;3.05;;;25.50;99.90;;;;;;5099277;28;20059;-63
2022/10/29 11:14:05;;;;;;;10.85;3.22;;;25.70;99.90;;;;;;5099285;28;20036;-64
2022/10/29 11:16:53;;;;;;;10.15;3.65;;;25.50;99.90;;;;;;5099221;28;20036;-63
2022/10/29 11:19:47;;;;;;;11.57;3.63;;;25.60;99.90;;;;;;5098960;28;20028;-64
2022/10/29 11:22:51;;;;;;;12.10;3.70;;;25.20;99.90;;;;;;5099090;28;20052;-66
2022/10/29 11:25:25;;;;;;;12.30;3.97;;;24.50;99.90;;;;;;5057995;28;20060;-66
2022/10/29 11:27:59;;;;;;;11.65;4.05;;;24.40;99.90;;;;;;5098951;28;20346;-66
2022/10/29 11:30:28;;;;;;;12.65;4.18;;;24.00;99.90;;;;;;5098820;28;20051;-67
2022/10/29 11:33:13;;;;;;;9.57;3.92;;;23.60;99.90;;;;;;5098746;28;20023;-66
2022/10/29 11:36:02;;;;;;;10.77;3.92;;;23.60;99.90;;;;;;5098233;28;20032;-66
2022/10/29 11:38:32;;;;;;;15.32;3.90;;;23.70;99.90;;;;;;5098873;28;20032;-65
2022/10/29 11:41:04;;;;;;;11.63;3.65;;;24.00;99.90;;;;;;5098633;28;20047;-67
2022/10/29 11:43:31;;;;;;;12.98;3.80;;;24.30;99.90;;;;;;5099001;28;20318;-66
2022/10/29 11:46:00;;;;;;;9.05;3.17;;;24.40;99.90;;;;;;5098009;28;20039;-67
2022/10/29 11:48:48;;;;;;;10.68;3.53;;;24.60;99.90;;;;;;5098569;28;20024;-66
2022/10/29 11:51:30;;;;;;;10.18;4.13;;;24.60;99.90;;;;;;5098511;28;20028;-66
2022/10/29 11:54:07;;;;;;;10.45;3.47;;;24.60;99.90;;;;;;5097662;28;20405;-66
2022/10/29 11:56:57;;;;;;;11.40;3.90;;;24.40;99.90;;;;;;5097568;28;20024;-68
2022/10/29 11:59:54;;;;;;;12.40;3.65;;;24.60;99.90;;;;;;5080856;28;20298;-67
2022/10/29 12:02:43;;;;;;;12.35;3.60;;;24.80;99.90;;;;;;5098869;28;20318;-66
2022/10/29 12:05:49;;;;;;;9.27;3.45;;;24.50;99.90;;;;;;5098086;28;20042;-66
2022/10/29 12:08:33;;;;;;;10.30;3.65;;;24.30;99.90;;;;;;5097491;28;20020;-67
2022/10/29 12:11:27;;;;;;;11.15;3.88;;;24.40;99.90;;;;;;5097438;28;20028;-67
2022/10/29 12:14:10;;;;;;;9.90;3.58;;;24.60;99.90;;;;;;5098605;28;20275;-67
2022/10/29 12:17:22;;;;;;;9.48;3.55;;;24.80;99.90;;;;;;5097148;28;20307;-65
2022/10/29 12:20:27;;;;;;;9.80;3.70;;;24.90;99.90;;;;;;5073683;28;20036;-66
2022/10/29 12:23:27;;;;;;;11.25;3.53;;;25.00;99.90;;;;;;5098824;28;20078;-65
2022/10/29 12:26:15;;;;;;;11.27;3.47;;;25.00;99.90;;;;;;5080131;28;20031;-67
2022/10/29 12:28:43;;;;;;;8.68;3.55;;;25.30;99.90;;;;;;5097716;28;20028;-66
2022/10/29 12:31:23;;;;;;;10.48;3.53;;;25.20;99.90;;;;;;5097853;28;20161;-65
2022/10/29 12:34:12;;;;;;;10.02;3.42;;;25.40;99.90;;;;;;5097574;28;20051;-66
2022/10/29 12:36:50;;;;;;;9.30;3.42;;;25.70;99.90;;;;;;5097659;28;20093;-65
2022/10/29 12:39:34;;;;;;;10.43;3.53;;;25.70;99.90;;;;;;5096898;28;20032;-65
2022/10/29 12:42:13;;;;;;;8.27;3.45;;;25.50;99.90;;;;;;5097504;28;20044;-69
2022/10/29 12:44:57;;;;;;;12.57;3.70;;;25.70;99.90;;;;;;5097463;28;20031;-64
2022/10/29 12:47:48;;;;;;;13.10;3.92;;;25.70;99.90;;;;;;5096866;28;20032;-67
2022/10/29 12:50:50;;;;;;;11.85;3.40;;;25.80;99.90;;;;;;5096700;28;20024;-65
2022/10/29 12:53:29;;;;;;;8.05;3.70;;;25.80;99.90;;;;;;5016109;28;20033;-67
2022/10/29 12:55:57;;;;;;;10.05;3.58;;;25.80;99.90;;;;;;5088531;28;20035;-65
2022/10/29 12:58:42;;;;;;;8.50;3.45;;;25.90;99.90;;;;;;5097248;28;20289;-67
2022/10/29 13:01:31;;;;;;;11.38;3.38;;;25.90;99.90;;;;;;5063045;28;20028;-68